Time;durP1;ratioP1;P1;durP2;ratioP2;P2;SDS_P1;SDS_P2;PMS_P1;PMS_P2;Temp;Humidity;BMP_temperature;BMP_pressure;BME280_temperature;BME280_humidity;BME280_pressure;Samples;Min_cycle;Max_cycle;Signal;HPM_P1;HPM_P2
2021/10/21 05:51:20;;;;;;;3.08;0.60;;;;;;;;;;10545025;27;20894;-84
2021/10/21 05:56:27;;;;;;;1.83;0.40;;;;;;;;;;10526383;28;20103;-85
2021/10/21 06:01:37;;;;;;;1.67;0.40;;;;;;;;;;10528834;28;20028;-85
2021/10/21 06:06:38;;;;;;;1.00;0.38;;;;;;;;;;10529941;28;20036;-85
2021/10/21 06:11:39;;;;;;;1.90;0.73;;;;;;;;;;10527989;28;20105;-85
2021/10/21 06:16:48;;;;;;;1.80;0.50;;;;;;;;;;10527239;28;20024;-85
2021/10/21 06:21:57;;;;;;;1.13;0.55;;;;;;;;;;10526856;28;20538;-85
2021/10/21 06:27:03;;;;;;;2.85;0.80;;;;;;;;;;10542476;28;20109;-85
2021/10/21 06:32:04;;;;;;;1.85;1.08;;;;;;;;;;10524500;28;20027;-85
2021/10/21 06:37:07;;;;;;;2.17;1.00;;;;;;;;;;10524993;28;20075;-85
2021/10/21 06:42:08;;;;;;;2.85;1.10;;;;;;;;;;10524336;28;20509;-85
2021/10/21 06:47:09;;;;;;;2.97;1.60;;;;;;;;;;10525927;28;20039;-84
2021/10/21 06:52:11;;;;;;;3.47;1.70;;;;;;;;;;10525103;28;20516;-84
2021/10/21 06:57:11;;;;;;;4.47;1.75;;;;;;;;;;10521757;28;20505;-84
2021/10/21 07:02:14;;;;;;;1.85;0.77;;;;;;;;;;10502042;28;20157;-85
2021/10/21 07:07:15;;;;;;;1.95;0.40;;;;;;;;;;10501545;28;20069;-85
2021/10/21 07:12:17;;;;;;;3.33;0.50;;;;;;;;;;10499039;28;20058;-85
2021/10/21 07:17:18;;;;;;;0.93;0.50;;;;;;;;;;10500648;28;20033;-86
2021/10/21 07:22:19;;;;;;;0.82;0.50;;;;;;;;;;10501392;28;20024;-86
2021/10/21 07:27:29;;;;;;;0.98;0.50;;;;;;;;;;10500635;28;20028;-85
2021/10/21 07:32:30;;;;;;;1.50;0.60;;;;;;;;;;10500514;28;20078;-85
2021/10/21 07:37:49;;;;;;;;;;;;;;;;;;10518451;28;20222;-85
2021/10/21 07:42:51;;;;;;;1.08;0.50;;;;;;;;;;10515050;28;19904;-82
2021/10/21 07:47:52;;;;;;;2.08;0.98;;;;;;;;;;10490876;28;20040;-81
2021/10/21 07:52:53;;;;;;;5.07;1.70;;;;;;;;;;10491395;28;20149;-83
2021/10/21 07:57:58;;;;;;;7.32;3.85;;;;;;;;;;10493209;28;20039;-81
2021/10/21 08:02:59;;;;;;;9.13;6.63;;;;;;;;;;10493446;28;20031;-82
2021/10/21 08:08:04;;;;;;;8.93;6.07;;;;;;;;;;10492479;28;20467;-82
2021/10/21 08:13:05;;;;;;;11.98;7.82;;;;;;;;;;10491404;28;20059;-80
2021/10/21 08:18:06;;;;;;;7.45;3.15;;;;;;;;;;10490881;28;20371;-81
2021/10/21 08:23:12;;;;;;;8.15;5.38;;;;;;;;;;10489604;28;20024;-81
2021/10/21 08:28:14;;;;;;;7.47;2.95;;;;;;;;;;10489286;28;20052;-81
2021/10/21 08:33:17;;;;;;;8.77;5.07;;;;;;;;;;10490070;28;20028;-81
2021/10/21 08:38:19;;;;;;;11.75;4.53;;;;;;;;;;10507478;28;20044;-81
2021/10/21 08:43:20;;;;;;;11.70;5.05;;;;;;;;;;10488892;28;20016;-81
2021/10/21 08:48:21;;;;;;;9.20;3.20;;;;;;;;;;10509323;28;20075;-81
2021/10/21 08:53:25;;;;;;;8.95;3.30;;;;;;;;;;10491188;28;20040;-81
2021/10/21 08:58:27;;;;;;;9.13;3.63;;;;;;;;;;10490327;28;20032;-81
2021/10/21 09:03:53;;;;;;;13.35;6.30;;;;;;;;;;10491504;28;20020;-81
2021/10/21 09:09:05;;;;;;;9.43;2.80;;;;;;;;;;10525171;28;20039;-81
2021/10/21 09:14:13;;;;;;;8.40;3.13;;;;;;;;;;10511028;28;20040;-81
2021/10/21 09:19:14;;;;;;;6.43;2.47;;;;;;;;;;10508822;28;20058;-81
2021/10/21 09:24:15;;;;;;;;;;;;;;;;;;10498695;28;20012;-80
2021/10/21 09:29:25;;;;;;;7.68;2.28;;;;;;;;;;10489005;28;19911;-81
2021/10/21 09:34:26;;;;;;;6.27;2.60;;;;;;;;;;10486670;28;20033;-82
2021/10/21 09:39:41;;;;;;;7.82;2.40;;;;;;;;;;10487618;28;20040;-81
2021/10/21 09:44:48;;;;;;;5.88;1.92;;;;;;;;;;10485802;28;20020;-82
2021/10/21 09:49:56;;;;;;;8.77;2.53;;;;;;;;;;10496247;28;20062;-83
2021/10/21 09:55:02;;;;;;;9.52;3.00;;;;;;;;;;10494636;28;20029;-82
2021/10/21 10:00:25;;;;;;;11.02;4.22;;;;;;;;;;10491152;28;20032;-85
2021/10/21 10:05:32;;;;;;;13.45;3.40;;;;;;;;;;10494904;28;20021;-84
2021/10/21 10:10:37;;;;;;;7.78;3.85;;;;;;;;;;10497200;28;20021;-85
2021/10/21 10:15:39;;;;;;;7.57;4.00;;;;;;;;;;10503042;28;20021;-86
2021/10/21 10:20:41;;;;;;;6.95;3.03;;;;;;;;;;10495707;28;20029;-85
2021/10/21 10:25:46;;;;;;;15.82;4.57;;;;;;;;;;10492389;28;20101;-86
2021/10/21 10:30:48;;;;;;;10.32;3.38;;;;;;;;;;10493270;28;20032;-84
2021/10/21 10:35:49;;;;;;;7.85;3.65;;;;;;;;;;10500030;28;20119;-87
2021/10/21 10:40:59;;;;;;;7.30;3.20;;;;;;;;;;10503151;28;20028;-86
2021/10/21 10:46:00;;;;;;;6.60;2.17;;;;;;;;;;10500901;28;20024;-86
2021/10/21 10:51:01;;;;;;;8.68;3.10;;;;;;;;;;10503542;28;20048;-86
2021/10/21 10:56:02;;;;;;;;;;;;;;;;;;10502480;28;20029;-86
2021/10/21 11:01:03;;;;;;;6.57;2.90;;;;;;;;;;10502528;28;19939;-86
2021/10/21 11:06:04;;;;;;;6.10;2.85;;;;;;;;;;10499496;28;20552;-86
2021/10/21 11:11:05;;;;;;;;;;;;;;;;;;10506623;28;20028;-87
2021/10/21 11:16:26;;;;;;;5.47;1.70;;;;;;;;;;10502499;28;19905;-86
2021/10/21 11:21:46;;;;;;;5.70;1.88;;;;;;;;;;10499580;28;20146;-85
2021/10/21 11:26:47;;;;;;;4.45;2.15;;;;;;;;;;10500594;28;20032;-86
2021/10/21 11:32:01;;;;;;;;;;;;;;;;;;10503059;28;20025;-83
2021/10/21 11:37:02;;;;;;;6.13;1.98;;;;;;;;;;10502538;28;19916;-83
2021/10/21 11:42:03;;;;;;;4.30;1.35;;;;;;;;;;10501362;28;20456;-83
2021/10/21 11:47:05;;;;;;;6.32;2.70;;;;;;;;;;10498382;28;20032;-82
2021/10/21 11:52:08;;;;;;;5.80;1.83;;;;;;;;;;10500027;28;20043;-81
2021/10/21 11:57:11;;;;;;;3.97;1.70;;;;;;;;;;10497122;28;20021;-82
2021/10/21 12:02:18;;;;;;;7.25;3.33;;;;;;;;;;10496239;28;20080;-83
2021/10/21 12:07:19;;;;;;;2.78;1.20;;;;;;;;;;10495493;28;20027;-82
2021/10/21 12:12:19;;;;;;;;;;;;;;;;;;10494267;28;20508;-82
2021/10/21 12:17:30;;;;;;;3.05;1.35;;;;;;;;;;10496347;28;19926;-84
2021/10/21 12:22:36;;;;;;;2.87;1.03;;;;;;;;;;10538002;28;20039;-84
2021/10/21 12:27:37;;;;;;;3.67;0.93;;;;;;;;;;10521370;28;20314;-84
2021/10/21 12:32:50;;;;;;;;;;;;;;;;;;10518261;28;20473;-85
2021/10/21 12:37:55;;;;;;;3.08;0.80;;;;;;;;;;10522945;28;19908;-85
2021/10/21 12:43:11;;;;;;;5.30;1.98;;;;;;;;;;10484236;28;20023;-85
2021/10/21 12:48:49;;;;;;;4.03;1.98;;;;;;;;;;10517707;28;20035;-85
2021/10/21 12:53:53;;;;;;;4.47;1.20;;;;;;;;;;10498740;28;20024;-85
2021/10/21 12:59:03;;;;;;;4.82;2.35;;;;;;;;;;10500080;28;20030;-84
2021/10/21 13:04:04;;;;;;;4.85;1.27;;;;;;;;;;10521012;28;20020;-85
2021/10/21 13:09:08;;;;;;;;;;;;;;;;;;10500486;28;20047;-84
2021/10/21 13:14:15;;;;;;;4.38;1.50;;;;;;;;;;10495808;28;19904;-83
2021/10/21 13:19:18;;;;;;;2.55;0.95;;;;;;;;;;10494244;28;20028;-83
2021/10/21 13:24:19;;;;;;;4.25;1.50;;;;;;;;;;10484544;28;20382;-82
2021/10/21 13:29:22;;;;;;;2.70;0.88;;;;;;;;;;10485324;28;20028;-81
2021/10/21 13:34:23;;;;;;;2.25;0.85;;;;;;;;;;10485176;28;20082;-80
2021/10/21 13:39:26;;;;;;;;;;;;;;;;;;10493461;28;20090;-87
2021/10/21 13:44:27;;;;;;;1.77;0.77;;;;;;;;;;10508224;28;19942;-87
2021/10/21 13:49:28;;;;;;;3.10;0.73;;;;;;;;;;10485865;28;20482;-80
2021/10/21 13:54:30;;;;;;;2.85;0.68;;;;;;;;;;10482432;28;20051;-79
2021/10/21 13:59:35;;;;;;;1.55;0.70;;;;;;;;;;10496781;28;20037;-80
2021/10/21 14:10:14;;;;;;;2.83;1.50;;;;;;;;;;10515597;28;20037;-83
2021/10/21 14:15:15;;;;;;;;;;;;;;;;;;10506193;28;20020;-85
2021/10/21 14:20:16;;;;;;;1.50;0.90;;;;;;;;;;10509411;28;19998;-84
2021/10/21 14:25:23;;;;;;;2.50;1.35;;;;;;;;;;10501544;28;20078;-83
2021/10/21 14:30:27;;;;;;;3.58;1.20;;;;;;;;;;10500509;28;20020;-84
2021/10/21 14:35:28;;;;;;;2.25;0.77;;;;;;;;;;10499277;28;20439;-84
2021/10/21 14:40:29;;;;;;;;;;;;;;;;;;10503055;28;20024;-83
2021/10/21 14:45:30;;;;;;;2.13;0.98;;;;;;;;;;10497597;28;19911;-83
2021/10/21 14:50:32;;;;;;;3.20;2.03;;;;;;;;;;10498829;28;20052;-83
2021/10/21 14:55:33;;;;;;;9.57;4.57;;;;;;;;;;10517183;28;20032;-83
2021/10/21 15:23:22;;;;;;;6.43;3.17;;;;;;;;;;10496375;28;20029;-85
2021/10/21 15:28:43;;;;;;;4.50;3.15;;;;;;;;;;10493682;28;20086;-81
2021/10/21 15:33:45;;;;;;;8.88;4.32;;;;;;;;;;10477777;28;20029;-81
2021/10/21 15:50:59;;;;;;;2.25;1.10;;;;;;;;;;10484173;28;20049;-85
2021/10/21 16:17:15;;;;;;;2.25;1.00;;;;;;;;;;10467581;28;20078;-87
2021/10/21 16:27:24;;;;;;;4.60;1.75;;;;;;;;;;10488214;28;20044;-88
2021/10/21 16:32:35;;;;;;;2.67;1.38;;;;;;;;;;10439235;28;20075;-86
2021/10/21 16:38:23;;;;;;;2.72;1.10;;;;;;;;;;10469944;28;20037;-86
2021/10/21 16:43:54;;;;;;;3.10;1.20;;;;;;;;;;10474905;28;20029;-87
2021/10/21 16:54:52;;;;;;;2.60;1.30;;;;;;;;;;10387529;28;20026;-86
2021/10/21 17:00:00;;;;;;;3.28;1.05;;;;;;;;;;10386857;28;20042;-86
2021/10/21 17:05:07;;;;;;;2.88;1.20;;;;;;;;;;10414281;28;20124;-86
2021/10/21 17:10:08;;;;;;;3.20;1.20;;;;;;;;;;10471334;28;20056;-84
2021/10/21 17:15:09;;;;;;;2.45;1.17;;;;;;;;;;10459486;28;20032;-86
2021/10/21 17:20:10;;;;;;;3.78;1.55;;;;;;;;;;10457097;28;20040;-86
2021/10/21 17:25:40;;;;;;;4.63;1.35;;;;;;;;;;10450426;28;20029;-84
2021/10/21 17:30:41;;;;;;;4.97;1.27;;;;;;;;;;10472584;28;20092;-83
2021/10/21 17:35:44;;;;;;;4.35;1.60;;;;;;;;;;10472338;28;20267;-84
2021/10/21 17:40:45;;;;;;;3.45;1.20;;;;;;;;;;10471357;28;20041;-84
2021/10/21 17:45:55;;;;;;;2.22;1.20;;;;;;;;;;10486055;28;20037;-87
2021/10/21 17:56:40;;;;;;;2.47;1.00;;;;;;;;;;10498406;28;20026;-89
2021/10/21 18:01:41;;;;;;;3.08;1.23;;;;;;;;;;10476991;28;20066;-86
2021/10/21 18:07:02;;;;;;;3.30;1.00;;;;;;;;;;10464545;28;20127;-88
2021/10/21 18:12:15;;;;;;;5.30;1.10;;;;;;;;;;10450732;28;20044;-89
2021/10/21 18:17:17;;;;;;;4.40;1.40;;;;;;;;;;10488256;28;20017;-80
2021/10/21 18:22:18;;;;;;;2.78;1.30;;;;;;;;;;10489091;28;20093;-86
2021/10/21 18:27:19;;;;;;;3.20;1.48;;;;;;;;;;10484382;28;20045;-88
2021/10/21 18:32:30;;;;;;;3.38;1.30;;;;;;;;;;10451420;28;20479;-88
2021/10/21 18:37:30;;;;;;;;;;;;;;;;;;10447504;28;20077;-87
2021/10/21 18:42:35;;;;;;;3.88;1.40;;;;;;;;;;10469988;28;19919;-88
2021/10/21 18:47:37;;;;;;;2.58;1.10;;;;;;;;;;10472139;28;20100;-89
2021/10/21 18:52:38;;;;;;;4.47;1.75;;;;;;;;;;10470845;28;20102;-86
2021/10/21 18:57:39;;;;;;;3.63;1.55;;;;;;;;;;10477711;28;20077;-87
2021/10/21 19:02:41;;;;;;;3.80;1.23;;;;;;;;;;10477026;28;20093;-88
2021/10/21 19:07:42;;;;;;;2.45;1.20;;;;;;;;;;10461868;28;20041;-87
2021/10/21 19:12:44;;;;;;;2.47;1.02;;;;;;;;;;10462725;28;20395;-84
2021/10/21 19:17:48;;;;;;;6.18;2.03;;;;;;;;;;10459461;28;20044;-84
2021/10/21 19:22:49;;;;;;;3.13;1.30;;;;;;;;;;10493744;28;20142;-86
2021/10/21 19:27:50;;;;;;;4.10;1.30;;;;;;;;;;10476725;28;20111;-86
2021/10/21 19:32:53;;;;;;;3.50;1.13;;;;;;;;;;10470702;28;20506;-86
2021/10/21 19:37:54;;;;;;;2.35;1.10;;;;;;;;;;10477340;28;20031;-84
2021/10/21 19:42:56;;;;;;;3.30;1.25;;;;;;;;;;10453879;28;20070;-83
2021/10/21 19:47:56;;;;;;;5.28;1.73;;;;;;;;;;10452083;28;20025;-83
2021/10/21 19:52:58;;;;;;;6.65;2.55;;;;;;;;;;10449382;28;20025;-86
2021/10/21 19:57:59;;;;;;;5.30;2.22;;;;;;;;;;10447472;28;20040;-86
2021/10/21 20:03:00;;;;;;;7.57;1.52;;;;;;;;;;10448257;28;20029;-86
2021/10/21 20:08:01;;;;;;;3.45;1.50;;;;;;;;;;10475359;28;20045;-83
2021/10/21 20:13:03;;;;;;;3.03;1.38;;;;;;;;;;10451929;28;20048;-84
